Time,TemperatureF,DewpointF,PressureIn,WindDirection,WindDirectionDegrees,WindSpeedMPH,WindSpeedGustMPH,Humidity,HourlyPrecipIn,Conditions,Clouds,dailyrainin,SoftwareType,DateUTC
2013-07-06 00:05:00,74.3,69.0,30.03,WSW,244,3.0,11.0,85,0.00,,,0.00,weatherlink.com 1.10,2013-07-06 04:05:00,
2013-07-06 00:22:00,75.7,69.0,30.02,NW,306,3.0,13.0,81,0.00,,,0.00,weatherlink.com 1.10,2013-07-06 04:22:00,
2013-07-06 00:38:00,75.6,70.0,30.03,NW,317,2.0,11.0,82,0.00,,,0.00,weatherlink.com 1.10,2013-07-06 04:38:00,
2013-07-06 00:55:00,76.1,69.0,30.03,WNW,295,6.0,10.0,80,0.00,,,0.00,weatherlink.com 1.10,2013-07-06 04:55:00,
2013-07-06 01:11:00,76.3,70.0,30.03,WNW,292,3.0,11.0,80,0.00,,,0.00,weatherlink.com 1.10,2013-07-06 05:11:00,
2013-07-06 01:28:00,76.6,70.0,30.03,WSW,243,6.0,13.0,79,0.00,,,0.00,weatherlink.com 1.10,2013-07-06 05:28:00,
2013-07-06 01:44:00,76.9,70.0,30.02,WSW,238,1.0,11.0,78,0.00,,,0.00,weatherlink.com 1.10,2013-07-06 05:44:00,
2013-07-06 02:00:00,76.2,70.0,30.02,WSW,239,6.0,8.0,80,0.00,,,0.00,weatherlink.com 1.10,2013-07-06 06:00:00,
2013-07-06 02:17:00,74.8,70.0,30.02,WSW,256,1.0,12.0,84,0.00,,,0.00,weatherlink.com 1.10,2013-07-06 06:17:00,
2013-07-06 02:34:00,73.9,69.0,30.03,SW,216,5.0,10.0,86,0.00,,,0.00,weatherlink.com 1.10,2013-07-06 06:34:00,
2013-07-06 02:50:00,73.0,69.0,30.03,WNW,301,3.0,6.0,88,0.00,,,0.00,weatherlink.com 1.10,2013-07-06 06:50:00,
2013-07-06 03:06:00,72.7,69.0,30.03,WNW,282,1.0,8.0,88,0.00,,,0.00,weatherlink.com 1.10,2013-07-06 07:06:00,
2013-07-06 03:23:00,72.5,69.0,30.03,West,259,1.0,5.0,88,0.00,,,0.00,weatherlink.com 1.10,2013-07-06 07:23:00,
2013-07-06 03:40:00,72.3,68.0,30.03,South,182,4.0,7.0,87,0.00,,,0.00,weatherlink.com 1.10,2013-07-06 07:40:00,
2013-07-06 03:57:00,72.4,68.0,30.03,WSW,253,3.0,11.0,86,0.00,,,0.00,weatherlink.com 1.10,2013-07-06 07:57:00,
2013-07-06 04:13:00,71.8,68.0,30.02,WSW,256,2.0,6.0,88,0.00,,,0.00,weatherlink.com 1.10,2013-07-06 08:13:00,
2013-07-06 04:30:00,71.4,68.0,30.02,West,259,0.0,5.0,89,0.00,,,0.00,weatherlink.com 1.10,2013-07-06 08:30:00,
2013-07-06 04:46:00,72.0,68.0,30.02,SW,232,8.0,9.0,87,0.00,,,0.00,weatherlink.com 1.10,2013-07-06 08:46:00,
2013-07-06 05:03:00,72.7,68.0,30.02,SW,235,7.0,10.0,86,0.00,,,0.00,weatherlink.com 1.10,2013-07-06 09:03:00,
2013-07-06 05:20:00,72.8,68.0,30.02,SW,230,4.0,10.0,85,0.00,,,0.00,weatherlink.com 1.10,2013-07-06 09:20:00,
2013-07-06 05:37:00,72.7,68.0,30.03,WSW,248,2.0,8.0,86,0.00,,,0.00,weatherlink.com 1.10,2013-07-06 09:37:00,
2013-07-06 05:54:00,73.2,68.0,30.03,WSW,244,8.0,14.0,84,0.00,,,0.00,weatherlink.com 1.10,2013-07-06 09:54:00,
2013-07-06 06:11:00,73.3,68.0,30.03,WSW,248,5.0,8.0,84,0.00,,,0.00,weatherlink.com 1.10,2013-07-06 10:11:00,
2013-07-06 06:28:00,73.5,68.0,30.04,WSW,238,3.0,9.0,84,0.00,,,0.00,weatherlink.com 1.10,2013-07-06 10:28:00,
2013-07-06 06:44:00,73.5,68.0,30.04,SW,232,10.0,11.0,84,0.00,,,0.00,weatherlink.com 1.10,2013-07-06 10:44:00,
2013-07-06 07:00:00,73.8,69.0,30.04,WSW,242,8.0,14.0,85,0.00,,,0.00,weatherlink.com 1.10,2013-07-06 11:00:00,
2013-07-06 07:17:00,74.1,69.0,30.04,WNW,292,5.0,7.0,85,0.00,,,0.00,weatherlink.com 1.10,2013-07-06 11:17:00,
2013-07-06 07:33:00,74.8,70.0,30.04,WNW,298,2.0,8.0,85,0.00,,,0.00,weatherlink.com 1.10,2013-07-06 11:33:00,
2013-07-06 07:50:00,75.7,70.0,30.04,WSW,255,4.0,8.0,82,0.00,,,0.00,weatherlink.com 1.10,2013-07-06 11:50:00,
2013-07-06 08:06:00,75.9,70.0,30.04,NW,308,6.0,9.0,82,0.00,,,0.00,weatherlink.com 1.10,2013-07-06 12:06:00,
2013-07-06 08:22:00,76.3,71.0,30.04,WNW,292,1.0,8.0,83,0.00,,,0.00,weatherlink.com 1.10,2013-07-06 12:22:00,
2013-07-06 08:39:00,77.1,71.0,30.04,West,260,7.0,9.0,81,0.00,,,0.00,weatherlink.com 1.10,2013-07-06 12:39:00,
2013-07-06 08:55:00,77.3,70.0,30.03,WSW,244,4.0,7.0,78,0.00,,,0.00,weatherlink.com 1.10,2013-07-06 12:55:00,
2013-07-06 09:12:00,77.0,70.0,30.03,NW,308,1.0,8.0,78,0.00,,,0.00,weatherlink.com 1.10,2013-07-06 13:12:00,
2013-07-06 09:28:00,77.3,70.0,30.03,WNW,283,3.0,10.0,77,0.00,,,0.00,weatherlink.com 1.10,2013-07-06 13:28:00,
2013-07-06 09:44:00,77.8,70.0,30.03,WNW,287,6.0,12.0,77,0.00,,,0.00,weatherlink.com 1.10,2013-07-06 13:44:00,
2013-07-06 10:01:00,78.2,70.0,30.02,WNW,301,1.0,7.0,77,0.00,,,0.00,weatherlink.com 1.10,2013-07-06 14:01:00,
2013-07-06 10:17:00,76.9,69.0,30.02,WSW,239,3.0,9.0,76,0.00,,,0.00,weatherlink.com 1.10,2013-07-06 14:17:00,
2013-07-06 10:33:00,76.4,69.0,30.03,WSW,252,4.0,9.0,78,0.00,,,0.00,weatherlink.com 1.10,2013-07-06 14:33:00,
2013-07-06 10:50:00,76.3,70.0,30.03,NNW,340,2.0,8.0,80,0.00,,,0.00,weatherlink.com 1.10,2013-07-06 14:50:00,
2013-07-06 11:06:00,76.7,70.0,30.02,NW,321,4.0,11.0,79,0.00,,,0.00,weatherlink.com 1.10,2013-07-06 15:06:00,
2013-07-06 11:22:00,77.1,70.0,30.02,NE,47,8.0,9.0,79,0.00,,,0.00,weatherlink.com 1.10,2013-07-06 15:22:00,
2013-07-06 11:39:00,77.8,70.0,30.02,NW,310,2.0,12.0,76,0.00,,,0.00,weatherlink.com 1.10,2013-07-06 15:39:00,
2013-07-06 11:56:00,79.4,70.0,30.02,WNW,293,5.0,8.0,72,0.00,,,0.00,weatherlink.com 1.10,2013-07-06 15:56:00,
2013-07-06 12:12:00,79.4,69.0,30.02,NW,317,4.0,12.0,71,0.00,,,0.00,weatherlink.com 1.10,2013-07-06 16:12:00,
2013-07-06 12:29:00,79.0,69.0,30.03,NNW,327,5.0,11.0,71,0.00,,,0.00,weatherlink.com 1.10,2013-07-06 16:29:00,
2013-07-06 12:45:00,78.7,69.0,30.02,NW,306,5.0,13.0,73,0.00,,,0.00,weatherlink.com 1.10,2013-07-06 16:45:00,
2013-07-06 13:01:00,80.6,69.0,30.02,WNW,282,8.0,11.0,68,0.00,,,0.00,weatherlink.com 1.10,2013-07-06 17:01:00,
2013-07-06 13:18:00,80.6,69.0,30.01,West,267,7.0,15.0,67,0.00,,,0.00,weatherlink.com 1.10,2013-07-06 17:18:00,
2013-07-06 13:51:00,79.8,70.0,30.01,NW,317,3.0,9.0,72,0.00,,,0.00,weatherlink.com 1.10,2013-07-06 17:51:00,
2013-07-06 14:08:00,80.6,70.0,30.01,West,265,8.0,11.0,70,0.00,,,0.00,weatherlink.com 1.10,2013-07-06 18:08:00,
2013-07-06 14:25:00,81.1,69.0,30.00,WSW,244,6.0,11.0,66,0.00,,,0.00,weatherlink.com 1.10,2013-07-06 18:25:00,
2013-07-06 14:42:00,82.0,70.0,30.00,WNW,290,6.0,12.0,68,0.00,,,0.00,weatherlink.com 1.10,2013-07-06 18:42:00,
2013-07-06 15:15:00,82.5,69.0,29.99,WNW,298,4.0,11.0,63,0.00,,,0.00,weatherlink.com 1.10,2013-07-06 19:15:00,
2013-07-06 15:31:00,82.4,69.0,29.99,WSW,244,9.0,12.0,64,0.00,,,0.00,weatherlink.com 1.10,2013-07-06 19:31:00,
2013-07-06 15:47:00,82.8,69.0,29.99,WNW,287,2.0,10.0,64,0.00,,,0.00,weatherlink.com 1.10,2013-07-06 19:47:00,
2013-07-06 16:05:00,83.0,69.0,29.98,NNW,340,6.0,12.0,63,0.00,,,0.00,weatherlink.com 1.10,2013-07-06 20:05:00,
2013-07-06 16:37:00,82.7,68.0,29.98,NNW,328,2.0,11.0,61,0.00,,,0.00,weatherlink.com 1.10,2013-07-06 20:37:00,
2013-07-06 17:43:00,82.7,67.0,29.96,WNW,295,3.0,9.0,60,0.00,,,0.00,weatherlink.com 1.10,2013-07-06 21:43:00,
2013-07-06 17:59:00,83.0,66.0,29.97,West,275,5.0,10.0,56,0.00,,,0.00,weatherlink.com 1.10,2013-07-06 21:59:00,
2013-07-06 18:15:00,82.1,66.0,29.96,West,277,6.0,10.0,58,0.00,,,0.00,weatherlink.com 1.10,2013-07-06 22:15:00,
2013-07-06 18:48:00,81.8,66.0,29.96,NW,308,7.0,8.0,59,0.00,,,0.00,weatherlink.com 1.10,2013-07-06 22:48:00,
2013-07-06 19:04:00,80.2,67.0,29.96,WSW,248,3.0,11.0,64,0.00,,,0.00,weatherlink.com 1.10,2013-07-06 23:04:00,
2013-07-06 19:21:00,79.7,67.0,29.96,NW,326,1.0,5.0,65,0.00,,,0.00,weatherlink.com 1.10,2013-07-06 23:21:00,
2013-07-06 19:37:00,79.6,68.0,29.97,West,271,3.0,8.0,67,0.00,,,0.00,weatherlink.com 1.10,2013-07-06 23:37:00,
2013-07-06 19:53:00,79.7,68.0,29.97,WNW,295,0.0,6.0,67,0.00,,,0.00,weatherlink.com 1.10,2013-07-06 23:53:00,
2013-07-06 20:09:00,78.9,67.0,29.98,NW,307,0.0,3.0,68,0.00,,,0.00,weatherlink.com 1.10,2013-07-07 00:09:00,
2013-07-06 20:25:00,77.6,67.0,29.97,WSW,246,2.0,6.0,70,0.00,,,0.00,weatherlink.com 1.10,2013-07-07 00:25:00,
2013-07-06 20:42:00,76.1,67.0,29.97,West,260,2.0,5.0,74,0.00,,,0.00,weatherlink.com 1.10,2013-07-07 00:42:00,
2013-07-06 21:14:00,75.6,67.0,29.98,WSW,247,2.0,11.0,76,0.00,,,0.00,weatherlink.com 1.10,2013-07-07 01:14:00,
2013-07-06 21:31:00,75.3,67.0,29.99,NW,304,0.0,8.0,76,0.00,,,0.00,weatherlink.com 1.10,2013-07-07 01:31:00,
2013-07-06 21:47:00,75.1,67.0,29.99,WNW,283,1.0,9.0,76,0.00,,,0.00,weatherlink.com 1.10,2013-07-07 01:47:00,
2013-07-06 22:19:00,74.2,67.0,30.00,West,266,1.0,7.0,78,0.00,,,0.00,weatherlink.com 1.10,2013-07-07 02:19:00,
2013-07-06 23:08:00,73.0,66.0,30.00,WSW,251,0.0,4.0,79,0.00,,,0.00,weatherlink.com 1.10,2013-07-07 03:08:00,
2013-07-06 23:57:00,72.0,65.0,30.00,SSE,154,5.0,7.0,80,0.00,,,0.00,weatherlink.com 1.10,2013-07-07 03:57:00,